Wrington, United Kingdom
Current Conditions -  °F | °C
As of 12:20 PM on Thursday 30 Oct 2014 (Local Time) from EGGD Reporting Station
Broken Clouds Broken Clouds  
Wind Chill: 59°   Ceiling: 600
Heat Index: 59°   Visibility: 4mi
Dew Point: 57°   Wind: 9mph
Humidity: 94%   Direction: 180°S
Pressure: 30.06"   Gusts: NA
Location:  51.36°N, 2.76°W
Report Text: EGGD 301220Z 18008KT 7000 BKN006 15/14 Q1018
Loading
Personal Weather Stations






























Interactive Weather Map New forecast layout! Learn more

10-Day Weather Forecast

Advertisements
Track Severe Weather on mobile